Time;durP1;ratioP1;P1;durP2;ratioP2;P2;SDS_P1;SDS_P2;PMS_P1;PMS_P2;Temp;Humidity;BMP_temperature;BMP_pressure;BME280_temperature;BME280_humidity;BME280_pressure;Samples;Min_cycle;Max_cycle;Signal;HPM_P1;HPM_P2
2022/10/03 00:01:52;;;;;;;10.13;4.10;;;;;;;13.88;96.92;101478.94;4991565;28;20243;-61
2022/10/03 00:04:37;;;;;;;9.97;4.20;;;;;;;13.92;97.13;101479.47;4931788;29;20212;-61
2022/10/03 00:07:18;;;;;;;12.00;4.67;;;;;;;14.00;96.41;101482.22;4982192;28;20269;-61
2022/10/03 00:10:01;;;;;;;11.67;4.20;;;;;;;14.01;96.05;101485.75;4992235;28;20198;-61
2022/10/03 00:12:46;;;;;;;7.57;3.90;;;;;;;13.90;97.03;101476.09;4991850;28;20266;-61
2022/10/03 00:15:20;;;;;;;9.53;4.00;;;;;;;13.81;97.77;101482.28;4983518;28;20651;-59
2022/10/03 00:18:01;;;;;;;8.30;4.23;;;;;;;13.70;98.76;101478.00;4990706;28;20221;-60
2022/10/03 00:20:49;;;;;;;11.47;4.20;;;;;;;13.82;97.79;101484.81;4991506;28;20211;-60
2022/10/03 00:23:24;;;;;;;13.97;4.10;;;;;;;13.86;96.71;101485.38;4991576;28;20211;-60
2022/10/03 00:26:25;;;;;;;12.70;4.97;;;;;;;13.81;96.21;101483.13;4985030;28;20710;-60
2022/10/03 00:29:10;;;;;;;11.37;4.80;;;;;;;13.72;96.25;101486.66;4989835;28;20211;-60
2022/10/03 00:31:47;;;;;;;11.27;4.50;;;;;;;13.76;96.25;101492.56;4990257;28;20234;-60
2022/10/03 00:34:26;;;;;;;6.20;3.67;;;;;;;13.70;95.78;101494.00;4988847;28;20278;-61
2022/10/03 00:37:21;;;;;;;11.00;3.90;;;;;;;13.77;94.83;101492.41;4990057;28;20198;-61
2022/10/03 00:40:30;;;;;;;8.83;4.23;;;;;;;13.77;93.97;101495.09;4982660;28;20680;-60
2022/10/03 00:43:27;;;;;;;10.23;4.27;;;;;;;13.74;93.67;101497.19;4991517;28;20697;-61
2022/10/03 00:46:21;;;;;;;9.20;4.07;;;;;;;13.61;94.32;101497.50;4989163;28;20610;-61
2022/10/03 00:49:23;;;;;;;6.90;4.17;;;;;;;13.52;94.94;101504.53;4991386;28;20206;-61
2022/10/03 00:52:06;;;;;;;9.00;4.33;;;;;;;13.52;95.08;101504.53;4953789;28;20657;-61
2022/10/03 00:55:00;;;;;;;6.77;3.83;;;;;;;13.60;94.38;101502.97;4991513;28;20678;-59
2022/10/03 00:57:56;;;;;;;7.83;4.73;;;;;;;13.62;94.02;101498.34;4984601;28;20272;-59
2022/10/03 01:00:28;;;;;;;11.50;3.80;;;;;;;13.57;93.99;101507.59;4989462;28;20218;-60
2022/10/03 01:03:16;;;;;;;11.40;4.57;;;;;;;13.58;94.00;101513.78;4991126;28;20226;-60
2022/10/03 01:05:52;;;;;;;8.57;4.73;;;;;;;13.57;93.78;101517.41;4989998;28;20214;-61
2022/10/03 01:08:40;;;;;;;11.93;4.23;;;;;;;13.66;92.83;101515.72;4983815;28;20335;-60
2022/10/03 01:11:21;;;;;;;11.47;4.40;;;;;;;13.71;92.09;101518.81;4992357;28;20207;-61
2022/10/03 01:14:04;;;;;;;14.93;4.60;;;;;;;13.73;91.38;101519.50;4997468;28;20254;-61
2022/10/03 01:16:43;;;;;;;6.83;4.43;;;;;;;13.66;91.84;101523.72;4979344;28;20218;-61
2022/10/03 01:19:31;;;;;;;12.13;5.00;;;;;;;13.52;92.69;101519.69;4987534;28;20214;-61
2022/10/03 01:22:15;;;;;;;7.27;4.63;;;;;;;13.51;92.79;101524.16;4989764;28;20234;-61
2022/10/03 01:24:52;;;;;;;9.53;4.93;;;;;;;13.48;93.14;101528.94;4992785;28;20208;-61
2022/10/03 01:27:32;;;;;;;13.67;5.00;;;;;;;13.49;92.94;101525.28;4987683;28;20624;-61
2022/10/03 01:30:21;;;;;;;8.77;4.40;;;;;;;13.46;92.48;101526.41;4993312;28;20218;-60
2022/10/03 01:32:56;;;;;;;11.40;5.10;;;;;;;13.53;92.44;101532.03;4998738;28;20235;-60
2022/10/03 01:35:36;;;;;;;13.70;5.47;;;;;;;13.54;91.81;101531.03;4994857;28;20206;-60
2022/10/03 01:38:14;;;;;;;10.07;4.67;;;;;;;13.52;92.52;101533.00;4994852;28;20215;-60
2022/10/03 01:40:50;;;;;;;11.27;4.67;;;;;;;13.56;92.04;101540.56;4990722;28;20310;-60
2022/10/03 01:43:21;;;;;;;8.20;4.83;;;;;;;13.51;92.11;101537.50;4995008;28;20554;-60
2022/10/03 01:46:00;;;;;;;10.00;5.23;;;;;;;13.50;91.95;101537.63;4994534;28;20258;-59
2022/10/03 01:48:40;;;;;;;11.53;5.00;;;;;;;13.52;92.10;101541.00;4994033;28;20212;-60
2022/10/03 01:51:11;;;;;;;16.80;5.60;;;;;;;13.45;92.38;101539.88;4988010;28;20641;-60
2022/10/03 01:53:50;;;;;;;11.63;5.27;;;;;;;13.43;92.46;101542.69;4994794;28;20242;-59
2022/10/03 01:56:25;;;;;;;9.90;4.77;;;;;;;13.41;92.52;101543.81;4994345;28;20219;-60
2022/10/03 01:59:00;;;;;;;9.93;5.53;;;;;;;13.41;92.61;101554.47;4994729;28;20206;-61
2022/10/03 02:01:43;;;;;;;13.13;5.93;;;;;;;13.34;92.21;101559.50;4993477;28;20283;-61
2022/10/03 02:04:20;;;;;;;11.63;5.23;;;;;;;13.31;92.79;101558.94;4985134;28;20602;-61
2022/10/03 02:06:58;;;;;;;12.17;6.03;;;;;;;13.31;92.80;101556.28;4994484;28;20213;-61
2022/10/03 02:09:35;;;;;;;12.17;5.87;;;;;;;13.38;92.31;101554.72;4993907;28;20718;-61
2022/10/03 02:12:09;;;;;;;16.47;6.53;;;;;;;13.37;92.01;101558.41;4987418;28;20295;-61
2022/10/03 02:14:53;;;;;;;13.13;6.70;;;;;;;13.40;91.86;101552.78;4981255;28;20211;-61
2022/10/03 02:17:29;;;;;;;11.03;5.87;;;;;;;13.44;91.54;101548.84;4993022;28;20289;-61
2022/10/03 02:20:06;;;;;;;14.37;6.17;;;;;;;13.46;91.07;101549.53;4993990;28;20586;-61
2022/10/03 02:22:41;;;;;;;11.33;5.70;;;;;;;13.41;91.37;101555.31;4993519;28;20280;-61
2022/10/03 02:25:21;;;;;;;13.13;6.07;;;;;;;13.31;91.50;101553.59;4993946;28;20202;-61
2022/10/03 02:28:20;;;;;;;10.47;5.43;;;;;;;13.22;92.06;101544.63;4993084;28;20222;-61
2022/10/03 02:31:32;;;;;;;15.33;6.30;;;;;;;13.26;91.87;101545.22;4983361;28;20241;-61
2022/10/03 02:34:24;;;;;;;13.13;5.93;;;;;;;13.29;91.63;101550.22;4947936;28;20284;-61
2022/10/03 02:37:37;;;;;;;11.90;6.77;;;;;;;13.34;90.90;101537.34;4993885;28;20285;-61
2022/10/03 02:40:36;;;;;;;10.97;6.57;;;;;;;13.29;90.86;101528.91;4992705;28;20213;-61
2022/10/03 02:43:25;;;;;;;15.20;6.40;;;;;;;13.24;91.14;101536.50;4977718;28;20240;-61
2022/10/03 02:46:39;;;;;;;13.13;5.97;;;;;;;13.23;90.35;101534.81;4992391;28;20268;-61
2022/10/03 02:49:43;;;;;;;11.23;5.83;;;;;;;13.10;91.09;101535.91;4988491;28;20214;-61
2022/10/03 02:52:25;;;;;;;14.60;6.80;;;;;;;13.09;91.10;101533.38;4993025;28;20215;-61
2022/10/03 02:55:15;;;;;;;11.83;6.53;;;;;;;13.09;91.16;101533.38;4993340;28;20883;-60
2022/10/03 02:58:16;;;;;;;12.13;6.23;;;;;;;13.04;91.27;101538.28;4993310;28;20206;-61
2022/10/03 03:01:19;;;;;;;14.20;6.13;;;;;;;13.03;91.27;101553.41;4991455;28;20264;-61
2022/10/03 03:04:10;;;;;;;12.13;6.30;;;;;;;13.03;90.95;101545.41;4991706;28;20234;-60
2022/10/03 03:06:57;;;;;;;16.97;6.27;;;;;;;13.07;90.76;101549.50;4977282;28;20206;-60
2022/10/03 03:10:00;;;;;;;11.60;6.27;;;;;;;13.01;90.74;101555.38;4993264;28;20214;-61
2022/10/03 03:12:55;;;;;;;14.03;5.70;;;;;;;12.98;91.22;101563.63;4983617;28;20253;-61
2022/10/03 03:16:10;;;;;;;12.13;6.03;;;;;;;12.98;90.58;101563.63;4992619;28;20231;-61
2022/10/03 03:18:44;;;;;;;16.80;6.87;;;;;;;12.99;90.05;101565.31;4986972;28;20217;-60
2022/10/03 03:21:21;;;;;;;13.20;6.23;;;;;;;12.88;90.27;101573.41;4992070;28;20264;-60
2022/10/03 03:24:14;;;;;;;13.27;5.93;;;;;;;12.92;90.29;101580.16;4997650;28;20284;-61
2022/10/03 03:27:04;;;;;;;21.17;6.57;;;;;;;12.97;89.96;101577.94;4992733;28;20233;-61
2022/10/03 03:29:42;;;;;;;10.37;5.70;;;;;;;12.93;89.43;101573.84;4991866;28;20212;-61
2022/10/03 03:32:23;;;;;;;17.47;7.27;;;;;;;12.93;89.58;101581.81;4992431;28;20257;-61
2022/10/03 03:34:58;;;;;;;14.73;6.93;;;;;;;12.90;89.13;101574.13;4992824;28;20590;-61
2022/10/03 03:37:34;;;;;;;14.07;6.30;;;;;;;12.81;89.55;101581.13;4993043;28;20272;-60
2022/10/03 03:40:31;;;;;;;10.73;5.80;;;;;;;12.82;89.16;101574.81;4981821;28;20215;-60
2022/10/03 03:43:15;;;;;;;12.03;5.53;;;;;;;12.82;88.99;101584.63;4991315;28;20234;-60
2022/10/03 03:45:53;;;;;;;11.00;6.20;;;;;;;12.86;88.90;101580.69;4991468;28;20698;-61
2022/10/03 03:48:43;;;;;;;14.43;5.57;;;;;;;12.89;88.65;101579.59;4992428;28;20214;-61
2022/10/03 03:51:21;;;;;;;16.03;6.17;;;;;;;12.80;88.82;101581.25;4991823;28;20212;-60
2022/10/03 03:54:26;;;;;;;10.90;5.20;;;;;;;12.79;89.08;101576.91;4992680;28;20253;-60
2022/10/03 03:57:14;;;;;;;13.17;6.03;;;;;;;12.67;89.76;101591.28;4983080;28;20264;-59
2022/10/03 04:00:01;;;;;;;13.17;6.03;;;;;;;12.65;90.05;101596.75;4992058;28;20660;-60
2022/10/03 04:02:43;;;;;;;11.10;5.60;;;;;;;12.70;90.04;101599.00;4992466;28;20214;-61
2022/10/03 04:05:25;;;;;;;15.37;5.60;;;;;;;12.78;89.26;101600.00;4992282;28;20210;-61
2022/10/03 04:08:11;;;;;;;14.10;5.40;;;;;;;12.79;88.75;101595.53;4993145;28;20264;-61
2022/10/03 04:10:52;;;;;;;11.63;4.83;;;;;;;12.76;88.83;101609.09;4985906;28;20218;-61
2022/10/03 04:13:32;;;;;;;13.97;5.53;;;;;;;12.65;89.19;101604.72;4990604;28;20660;-60
2022/10/03 04:18:56;;;;;;;14.73;6.00;;;;;;;12.74;89.02;101609.25;4984069;28;20211;-60
2022/10/03 04:19:16;;;;;;;9.00;5.00;;;;;;;12.87;87.30;101605.50;4985755;28;20569;-60
2022/10/03 04:22:05;;;;;;;13.30;6.03;;;;;;;12.84;87.25;101611.91;4991363;28;20272;-61
2022/10/03 04:24:55;;;;;;;12.33;5.60;;;;;;;12.78;87.69;101615.13;4991747;28;20222;-60
2022/10/03 04:27:37;;;;;;;10.63;4.97;;;;;;;12.80;87.93;101619.34;4989337;28;20205;-60
2022/10/03 04:30:13;;;;;;;12.73;5.00;;;;;;;12.67;87.96;101615.22;4990983;28;20256;-60
2022/10/03 04:32:55;;;;;;;11.00;4.70;;;;;;;12.58;88.40;101618.69;5000625;28;20229;-60
2022/10/03 04:35:36;;;;;;;10.90;5.13;;;;;;;12.54;88.56;101619.94;4992413;28;20206;-60
2022/10/03 04:38:13;;;;;;;11.33;5.60;;;;;;;12.53;88.22;101629.75;4991386;28;20221;-60
2022/10/03 04:40:50;;;;;;;14.00;4.70;;;;;;;12.56;87.80;101625.97;4990885;28;20268;-60
2022/10/03 04:43:33;;;;;;;9.67;4.73;;;;;;;12.58;87.50;101618.69;4990881;28;20296;-61
2022/10/03 04:46:16;;;;;;;10.23;5.03;;;;;;;12.53;87.85;101615.59;4980584;28;20202;-60
2022/10/03 04:48:53;;;;;;;10.40;4.47;;;;;;;12.52;87.77;101619.22;4991604;28;20624;-60
2022/10/03 04:51:40;;;;;;;11.77;4.73;;;;;;;12.47;88.06;101627.63;4989301;28;20214;-60
2022/10/03 04:54:20;;;;;;;13.07;5.13;;;;;;;12.49;88.17;101620.31;4990658;28;20692;-60
2022/10/03 04:56:55;;;;;;;15.53;5.40;;;;;;;12.38;88.79;101626.59;4989993;28;20530;-60
2022/10/03 04:59:34;;;;;;;9.70;5.10;;;;;;;12.36;89.15;101617.88;4989460;28;20209;-60
2022/10/03 05:02:11;;;;;;;13.63;5.07;;;;;;;12.46;88.40;101622.41;4983578;28;20789;-60
2022/10/03 05:04:45;;;;;;;8.93;4.87;;;;;;;12.38;88.17;101629.25;4989767;28;20558;-60
2022/10/03 05:07:20;;;;;;;9.37;4.27;;;;;;;12.30;88.16;101614.94;4991031;28;20213;-61
2022/10/03 05:09:54;;;;;;;9.50;4.63;;;;;;;12.22;88.39;101628.88;4990435;28;20597;-61
2022/10/03 05:12:34;;;;;;;9.70;4.50;;;;;;;12.24;88.17;101632.22;4989444;28;20206;-60
2022/10/03 05:15:17;;;;;;;9.53;4.37;;;;;;;12.20;88.24;101632.63;4991064;28;20210;-60
2022/10/03 05:17:52;;;;;;;10.97;4.60;;;;;;;12.10;88.58;101640.53;4990939;28;20241;-61
2022/10/03 05:20:35;;;;;;;10.27;4.57;;;;;;;12.10;88.82;101637.88;4990559;28;20213;-61
2022/10/03 05:23:16;;;;;;;12.30;4.73;;;;;;;12.10;89.03;101645.03;4991125;28;20222;-60
2022/10/03 05:25:58;;;;;;;10.07;5.03;;;;;;;12.06;88.78;101645.25;4980757;28;20651;-59
2022/10/03 05:28:50;;;;;;;9.73;4.87;;;;;;;12.16;88.45;101644.50;4989385;28;20237;-60
2022/10/03 05:31:32;;;;;;;10.70;5.17;;;;;;;12.18;88.35;101635.41;4990106;28;20213;-60
2022/10/03 05:34:16;;;;;;;11.80;5.33;;;;;;;12.18;88.19;101647.88;4979104;28;20233;-62
2022/10/03 05:37:08;;;;;;;10.23;4.70;;;;;;;12.22;87.72;101644.84;4990648;28;20576;-61
2022/10/03 05:39:45;;;;;;;9.03;5.17;;;;;;;12.26;87.83;101656.88;4988206;28;20895;-60
2022/10/03 05:42:34;;;;;;;7.07;4.83;;;;;;;12.27;87.79;101655.06;4982513;28;20272;-60
2022/10/03 05:45:06;;;;;;;9.97;5.27;;;;;;;12.23;87.79;101664.25;4986015;28;20679;-61
2022/10/03 05:47:48;;;;;;;11.83;5.00;;;;;;;12.16;88.21;101655.13;4990562;28;20684;-60
2022/10/03 05:50:41;;;;;;;10.87;5.17;;;;;;;12.07;88.81;101656.75;4990554;28;20209;-61
2022/10/03 05:53:52;;;;;;;11.60;4.63;;;;;;;12.11;88.87;101652.88;4989397;28;20210;-61
2022/10/03 05:56:38;;;;;;;12.10;5.23;;;;;;;12.19;88.03;101663.69;4903605;29;20213;-61
2022/10/03 05:59:32;;;;;;;13.53;5.10;;;;;;;12.24;87.63;101671.28;4985959;28;20218;-61
2022/10/03 06:02:35;;;;;;;15.83;5.17;;;;;;;12.26;87.53;101672.84;4990163;28;20208;-61
2022/10/03 06:05:15;;;;;;;8.27;4.90;;;;;;;12.29;87.71;101677.91;4983541;28;20232;-60
2022/10/03 06:08:05;;;;;;;12.43;4.87;;;;;;;12.32;87.74;101684.75;4980736;28;20684;-61
2022/10/03 06:10:43;;;;;;;11.23;5.07;;;;;;;12.24;87.84;101687.22;4981268;28;20223;-61
2022/10/03 06:13:19;;;;;;;9.07;4.83;;;;;;;12.24;88.55;101685.41;4992811;28;20272;-61
2022/10/03 06:15:59;;;;;;;15.37;5.70;;;;;;;12.28;88.29;101689.53;4992991;28;20261;-61
2022/10/03 06:19:05;;;;;;;15.87;6.87;;;;;;;12.34;88.02;101680.16;4990191;28;20263;-60
2022/10/03 06:22:06;;;;;;;15.93;6.40;;;;;;;12.25;88.44;101684.44;4991934;28;20623;-61
2022/10/03 06:25:06;;;;;;;13.23;5.77;;;;;;;12.40;87.64;101685.81;4993177;28;20230;-61
2022/10/03 06:28:10;;;;;;;16.40;6.70;;;;;;;12.50;87.21;101695.66;4983588;28;20690;-61
2022/10/03 06:31:01;;;;;;;14.10;7.43;;;;;;;12.36;87.97;101699.50;4990816;28;20305;-61
2022/10/03 06:34:12;;;;;;;18.07;8.80;;;;;;;12.43;88.26;101701.50;5005449;28;20342;-62
2022/10/03 06:36:59;;;;;;;12.87;7.33;;;;;;;12.39;88.98;101700.09;4991686;28;20214;-61
2022/10/03 06:40:09;;;;;;;19.60;8.23;;;;;;;12.40;89.75;101698.28;4993383;28;20273;-61
2022/10/03 06:43:12;;;;;;;22.13;8.90;;;;;;;12.42;90.09;101698.97;4915565;28;20217;-61
2022/10/03 06:46:02;;;;;;;23.20;8.77;;;;;;;12.49;90.12;101694.81;4988100;28;20231;-61
2022/10/03 06:49:02;;;;;;;18.43;8.87;;;;;;;12.49;91.07;101700.13;4993744;28;20216;-61
2022/10/03 06:51:53;;;;;;;16.77;8.20;;;;;;;12.58;90.98;101693.19;4983511;28;20210;-61
2022/10/03 06:55:03;;;;;;;17.40;9.40;;;;;;;12.66;91.05;101690.75;4981690;28;20617;-61
2022/10/03 06:58:01;;;;;;;21.37;9.27;;;;;;;12.71;91.44;101694.69;4993415;28;20216;-61
2022/10/03 07:00:48;;;;;;;18.47;8.87;;;;;;;12.86;91.15;101697.81;4990156;28;20213;-61
2022/10/03 07:03:48;;;;;;;19.40;9.23;;;;;;;12.87;91.75;101698.66;4988255;28;20634;-61
2022/10/03 07:06:30;;;;;;;18.17;9.63;;;;;;;12.98;91.58;101698.59;4994119;28;20206;-62
2022/10/03 07:09:31;;;;;;;14.70;8.93;;;;;;;13.08;91.32;101697.66;4985774;28;20202;-61
2022/10/03 07:12:32;;;;;;;20.63;9.17;;;;;;;13.19;90.92;101692.22;4981930;28;20272;-61
2022/10/03 07:15:32;;;;;;;22.37;9.40;;;;;;;13.27;91.06;101693.41;4992339;28;20202;-61
2022/10/03 07:18:52;;;;;;;22.00;10.03;;;;;;;13.36;91.33;101689.91;4991860;28;20242;-60
2022/10/03 07:21:51;;;;;;;17.73;10.50;;;;;;;13.46;91.60;101690.75;4991548;28;20214;-61
2022/10/03 07:24:40;;;;;;;22.57;10.47;;;;;;;13.52;91.69;101696.41;4989249;28;20218;-61
2022/10/03 07:27:32;;;;;;;19.37;10.20;;;;;;;13.49;93.14;101703.81;4988074;28;20548;-61
2022/10/03 07:30:13;;;;;;;20.17;9.67;;;;;;;13.56;92.82;101707.63;4989951;28;20874;-61
2022/10/03 07:33:26;;;;;;;21.87;11.10;;;;;;;13.60;92.12;101703.72;5002249;28;20566;-61
2022/10/03 07:39:41;;;;;;;23.00;11.10;;;;;;;13.71;91.27;101716.06;4960663;28;20225;-61
2022/10/03 07:42:51;;;;;;;21.57;10.03;;;;;;;13.78;91.07;101719.88;4950384;28;20640;-62
2022/10/03 07:45:36;;;;;;;18.63;10.57;;;;;;;13.80;90.94;101725.91;4992924;28;20681;-61
2022/10/03 07:48:52;;;;;;;19.33;11.07;;;;;;;13.86;90.79;101736.00;4985766;28;20199;-61
2022/10/03 07:51:29;;;;;;;24.03;11.83;;;;;;;13.91;92.13;101737.28;4930547;28;20215;-63
2022/10/03 07:54:29;;;;;;;18.83;11.10;;;;;;;14.01;91.84;101745.28;4992871;28;20207;-60
2022/10/03 07:57:11;;;;;;;19.40;10.20;;;;;;;14.08;91.23;101742.88;4984491;28;20212;-61
2022/10/03 08:00:04;;;;;;;19.47;10.13;;;;;;;14.17;91.20;101734.03;4992344;28;20650;-61
2022/10/03 08:03:04;;;;;;;24.10;9.87;;;;;;;14.28;89.84;101744.59;4991151;28;20595;-61
2022/10/03 08:05:49;;;;;;;23.43;9.67;;;;;;;14.50;89.12;101747.00;4987441;28;20693;-61
2022/10/03 08:08:42;;;;;;;17.97;9.70;;;;;;;14.78;85.77;101741.72;4987031;28;20251;-61
2022/10/03 08:11:36;;;;;;;17.67;9.87;;;;;;;14.93;85.94;101750.97;4987782;28;20213;-61
2022/10/03 08:14:19;;;;;;;18.17;9.60;;;;;;;15.14;84.44;101746.25;4991214;28;20614;-61
2022/10/03 08:17:22;;;;;;;18.37;9.13;;;;;;;15.17;83.25;101751.31;4990723;28;20271;-61
2022/10/03 08:20:11;;;;;;;20.00;9.63;;;;;;;15.09;84.91;101745.84;4989179;28;20202;-61
2022/10/03 08:22:55;;;;;;;17.40;8.77;;;;;;;15.00;84.11;101741.38;4992129;28;20216;-61
2022/10/03 08:25:45;;;;;;;14.93;8.87;;;;;;;15.11;84.18;101751.06;4991565;28;20288;-62
2022/10/03 08:28:41;;;;;;;16.37;9.00;;;;;;;15.20;84.41;101750.19;4986862;28;20202;-61
2022/10/03 08:31:45;;;;;;;16.07;9.63;;;;;;;15.14;84.57;101745.41;4985156;28;20707;-61
2022/10/03 08:34:58;;;;;;;18.27;9.07;;;;;;;15.39;85.15;101748.22;4961984;28;20317;-61
2022/10/03 08:37:54;;;;;;;22.67;8.47;;;;;;;15.56;81.99;101748.47;4980797;28;20248;-61
2022/10/03 08:40:56;;;;;;;15.17;8.40;;;;;;;15.85;82.53;101745.59;4990865;28;20210;-61
2022/10/03 08:43:53;;;;;;;18.30;8.93;;;;;;;15.83;80.34;101748.47;4990937;28;20218;-61
2022/10/03 08:46:45;;;;;;;15.20;9.57;;;;;;;16.07;79.31;101748.69;4991136;28;20576;-61
2022/10/03 08:49:36;;;;;;;16.80;9.13;;;;;;;17.63;74.50;101736.97;4990167;28;20524;-61
2022/10/03 08:52:20;;;;;;;19.30;8.00;;;;;;;20.89;59.50;101732.06;4990343;28;20241;-62
2022/10/03 08:55:30;;;;;;;15.20;7.60;;;;;;;23.92;48.17;101732.03;4990497;28;20715;-62
2022/10/03 08:58:20;;;;;;;11.50;6.87;;;;;;;26.17;42.42;101722.28;4951918;28;20216;-61
2022/10/03 09:01:18;;;;;;;12.32;6.15;;;;;;;26.51;39.75;101721.00;4991028;28;20261;-61
2022/10/03 09:04:23;;;;;;;10.50;5.90;;;;;;;26.66;41.28;101715.19;4991720;28;20233;-61
2022/10/03 09:07:01;;;;;;;11.93;6.07;;;;;;;26.40;42.09;101719.81;4976879;28;20653;-61
2022/10/03 09:10:15;;;;;;;11.68;5.68;;;;;;;25.86;43.14;101718.50;4990720;28;20237;-61
2022/10/03 09:13:06;;;;;;;8.82;6.05;;;;;;;24.90;44.73;101722.22;4990596;28;20214;-61
2022/10/03 09:16:07;;;;;;;7.88;5.30;;;;;;;23.70;46.92;101722.38;4991451;28;20680;-61
2022/10/03 09:18:55;;;;;;;11.73;5.95;;;;;;;23.00;48.93;101728.91;4978459;28;20252;-61
2022/10/03 09:21:50;;;;;;;12.55;5.82;;;;;;;23.55;48.54;101730.69;4990410;28;20210;-60
2022/10/03 09:24:50;;;;;;;9.43;4.20;;;;;;;23.57;46.26;101728.59;4991064;28;20217;-62
2022/10/03 09:27:43;;;;;;;9.40;3.83;;;;;;;22.01;49.07;101726.22;4985595;28;20292;-62
2022/10/03 09:30:22;;;;;;;8.27;3.60;;;;;;;20.67;52.18;101730.28;4990789;28;20237;-61
2022/10/03 09:33:44;;;;;;;8.80;3.08;;;;;;;20.36;53.60;101736.63;5001823;28;20638;-61
2022/10/03 09:36:36;;;;;;;6.85;2.90;;;;;;;19.68;54.65;101741.97;4904608;29;20252;-62
2022/10/03 09:39:25;;;;;;;10.52;2.33;;;;;;;18.89;57.04;101740.22;4991152;28;20202;-62
2022/10/03 09:42:25;;;;;;;13.70;3.03;;;;;;;18.09;58.94;101736.56;4989829;28;20218;-62
2022/10/03 09:45:33;;;;;;;10.53;4.17;;;;;;;19.95;55.27;101738.78;4992866;28;20258;-62
2022/10/03 09:48:16;;;;;;;8.23;2.87;;;;;;;20.49;52.42;101728.75;4993439;28;20214;-62
2022/10/03 09:51:14;;;;;;;6.97;1.87;;;;;;;19.96;52.93;101734.22;4993866;28;20260;-62
2022/10/03 09:54:11;;;;;;;9.13;2.80;;;;;;;19.35;54.11;101733.19;4994398;28;20210;-61
2022/10/03 09:57:03;;;;;;;9.53;2.50;;;;;;;18.99;55.28;101733.66;4991007;28;20215;-62
2022/10/03 09:59:45;;;;;;;7.13;1.80;;;;;;;18.55;55.84;101740.44;4991290;28;20210;-62
2022/10/03 10:02:40;;;;;;;6.80;2.07;;;;;;;18.12;56.88;101746.97;4992595;28;20206;-62
2022/10/03 10:05:46;;;;;;;5.40;1.87;;;;;;;17.74;58.73;101743.03;4983469;28;20543;-62
2022/10/03 10:08:47;;;;;;;9.57;2.30;;;;;;;17.37;59.67;101741.56;4994355;28;20205;-62
2022/10/03 10:11:41;;;;;;;7.53;2.30;;;;;;;17.17;61.39;101742.78;4961863;28;20226;-62
2022/10/03 10:14:24;;;;;;;8.07;2.97;;;;;;;17.03;62.22;101740.72;4993081;28;20285;-61
2022/10/03 10:17:37;;;;;;;8.20;2.43;;;;;;;17.15;62.33;101736.78;4992557;28;20625;-61
2022/10/03 10:20:22;;;;;;;10.33;1.90;;;;;;;17.81;58.17;101725.28;4984277;28;20253;-61
2022/10/03 10:23:33;;;;;;;7.17;1.83;;;;;;;18.59;55.32;101720.28;4994305;28;20218;-61
2022/10/03 10:26:45;;;;;;;7.50;2.00;;;;;;;19.32;52.72;101720.09;4986901;28;20213;-62
2022/10/03 10:29:39;;;;;;;7.90;1.87;;;;;;;18.92;54.83;101708.44;4988311;28;20238;-61
2022/10/03 10:32:53;;;;;;;8.53;1.93;;;;;;;18.78;54.93;101715.38;4985628;28;20778;-62
2022/10/03 10:36:01;;;;;;;6.73;1.73;;;;;;;18.58;54.51;101721.28;4994518;28;20567;-62
2022/10/03 10:39:01;;;;;;;8.87;1.90;;;;;;;18.18;57.05;101722.97;4988702;28;20210;-62
2022/10/03 10:42:02;;;;;;;5.67;1.50;;;;;;;17.80;56.66;101723.59;4984581;28;20214;-62
2022/10/03 10:45:02;;;;;;;6.27;1.50;;;;;;;17.50;59.27;101728.50;4993753;28;20256;-62
2022/10/03 10:48:15;;;;;;;5.40;1.50;;;;;;;17.24;59.48;101731.25;4978945;28;20236;-62
2022/10/03 10:51:22;;;;;;;7.20;1.57;;;;;;;17.10;58.85;101717.63;4993059;28;20651;-61
2022/10/03 10:54:47;;;;;;;6.23;1.67;;;;;;;17.13;60.80;101720.84;4992182;28;20225;-61
2022/10/03 10:57:25;;;;;;;8.03;1.70;;;;;;;17.24;59.62;101727.75;4884895;29;20665;-60
2022/10/03 11:00:28;;;;;;;5.00;2.00;;;;;;;17.22;60.32;101727.09;4993285;28;20217;-62
2022/10/03 11:03:29;;;;;;;5.07;1.87;;;;;;;17.16;61.19;101722.34;4979318;28;20237;-61
2022/10/03 11:06:31;;;;;;;7.00;2.67;;;;;;;17.07;61.98;101724.16;4988935;28;20670;-61
2022/10/03 11:09:37;;;;;;;6.77;1.80;;;;;;;17.03;63.03;101730.00;4985702;28;20216;-61
2022/10/03 11:12:44;;;;;;;9.73;2.87;;;;;;;17.21;62.24;101720.88;4982994;28;20217;-61
2022/10/03 11:15:42;;;;;;;5.70;2.07;;;;;;;17.23;62.18;101726.09;4992514;28;20272;-61
2022/10/03 11:18:44;;;;;;;7.30;2.20;;;;;;;17.18;62.17;101720.34;4984535;28;20652;-61
2022/10/03 11:21:59;;;;;;;7.67;2.00;;;;;;;17.08;62.92;101714.28;4992481;28;20277;-62
2022/10/03 11:24:55;;;;;;;8.43;2.30;;;;;;;16.93;61.57;101717.56;4992782;28;20218;-61
2022/10/03 11:27:58;;;;;;;7.67;1.60;;;;;;;16.84;61.66;101721.19;4989750;28;20313;-62
2022/10/03 11:31:13;;;;;;;3.03;1.20;;;;;;;16.76;62.07;101721.16;4978040;28;20214;-61
2022/10/03 11:34:22;;;;;;;6.10;1.67;;;;;;;16.71;61.49;101712.72;4991645;28;20237;-61
2022/10/03 11:37:06;;;;;;;6.00;1.87;;;;;;;16.73;60.14;101716.09;4992315;28;20208;-61
2022/10/03 11:39:47;;;;;;;5.57;2.00;;;;;;;16.78;60.62;101712.97;4982351;28;20214;-61
2022/10/03 11:42:31;;;;;;;3.50;1.37;;;;;;;16.85;61.93;101701.44;4991703;28;20210;-62
2022/10/03 11:45:02;;;;;;;6.07;1.73;;;;;;;16.94;62.31;101702.31;4990933;28;20685;-62
2022/10/03 11:47:51;;;;;;;3.93;1.50;;;;;;;17.03;60.60;101708.56;4991392;28;20225;-62
2022/10/03 11:50:35;;;;;;;8.67;2.17;;;;;;;17.10;58.53;101706.91;4984001;28;20640;-62
2022/10/03 11:53:14;;;;;;;8.03;2.03;;;;;;;17.23;58.81;101701.97;4991754;28;20210;-62
2022/10/03 11:55:47;;;;;;;11.43;3.00;;;;;;;17.36;59.46;101705.00;4990986;28;20613;-61
2022/10/03 11:58:32;;;;;;;7.67;2.00;;;;;;;17.53;59.31;101693.31;4990952;28;20636;-61
2022/10/03 12:01:26;;;;;;;6.63;1.67;;;;;;;17.73;57.75;101693.06;4987867;28;20298;-61
2022/10/03 12:04:02;;;;;;;10.30;1.60;;;;;;;17.85;56.69;101699.81;4991881;28;20217;-62
2022/10/03 12:09:55;;;;;;;7.10;2.03;;;;;;;18.41;55.10;101689.06;4990855;28;20234;-62
2022/10/03 12:12:34;;;;;;;6.17;1.80;;;;;;;18.67;55.99;101694.25;4992093;28;20206;-61
2022/10/03 12:15:16;;;;;;;11.17;2.53;;;;;;;18.65;56.11;101690.03;4992464;28;20209;-61
2022/10/03 12:17:54;;;;;;;7.50;2.07;;;;;;;18.58;56.50;101686.38;4992290;28;20210;-61
2022/10/03 12:20:27;;;;;;;9.43;2.50;;;;;;;18.48;57.35;101678.47;4991515;28;20221;-61
2022/10/03 12:23:02;;;;;;;8.37;2.90;;;;;;;18.25;57.54;101683.72;4991394;28;20202;-62
2022/10/03 12:25:33;;;;;;;7.33;2.30;;;;;;;18.06;58.43;101678.66;4991158;28;20220;-62
2022/10/03 12:28:15;;;;;;;8.57;2.83;;;;;;;17.84;58.71;101687.41;4986769;28;20214;-61
2022/10/03 12:30:49;;;;;;;7.57;2.30;;;;;;;17.61;59.75;101681.78;4991040;28;20233;-62
2022/10/03 12:33:43;;;;;;;6.90;2.77;;;;;;;17.45;59.91;101682.59;5000846;28;20295;-62
2022/10/03 12:36:15;;;;;;;7.07;2.40;;;;;;;17.31;60.58;101683.22;4991908;28;20291;-61
2022/10/03 12:39:09;;;;;;;9.00;2.93;;;;;;;17.20;60.53;101679.00;4985444;28;20226;-61
2022/10/03 12:42:04;;;;;;;5.90;2.30;;;;;;;17.13;61.54;101677.13;4984812;28;20221;-62
2022/10/03 12:44:46;;;;;;;6.33;2.10;;;;;;;17.06;61.14;101676.09;4990737;28;20214;-61
2022/10/03 12:47:28;;;;;;;6.40;2.17;;;;;;;17.01;62.43;101665.00;4990633;28;20280;-61
2022/10/03 12:50:29;;;;;;;9.37;2.23;;;;;;;16.95;62.73;101674.53;4990653;28;20826;-61
2022/10/03 12:53:24;;;;;;;8.27;2.70;;;;;;;16.91;62.66;101670.47;4989846;28;20237;-60
2022/10/03 12:56:06;;;;;;;10.40;2.67;;;;;;;16.88;62.95;101668.97;4981521;28;20233;-61
2022/10/03 12:58:47;;;;;;;7.87;2.47;;;;;;;16.85;62.72;101666.63;4991207;28;20779;-61
2022/10/03 13:01:25;;;;;;;8.50;3.30;;;;;;;16.81;62.93;101665.25;4990073;28;20213;-61
2022/10/03 13:03:57;;;;;;;12.10;3.30;;;;;;;16.83;63.90;101657.06;4984409;28;20213;-62
2022/10/03 13:06:36;;;;;;;7.17;3.10;;;;;;;16.90;63.72;101663.44;4990073;28;20265;-61
2022/10/03 13:09:41;;;;;;;6.63;2.70;;;;;;;16.95;63.29;101657.63;4978711;28;20699;-62